createdAt,value
2023-06-18T00:00:54.647Z,15.60
2023-06-18T00:03:21.166Z,14.50
2023-06-18T00:05:47.557Z,13.80
2023-06-18T00:08:13.976Z,14.07
2023-06-18T00:10:40.389Z,13.07
2023-06-18T00:13:07.059Z,13.87
2023-06-18T00:15:33.475Z,14.67
2023-06-18T00:17:59.906Z,13.43
2023-06-18T00:20:26.362Z,13.30
2023-06-18T00:22:54.206Z,13.43
2023-06-18T00:25:21.061Z,13.43
2023-06-18T00:27:47.776Z,14.27
2023-06-18T00:30:15.114Z,13.63
2023-06-18T00:32:44.978Z,12.93
2023-06-18T00:35:12.574Z,13.47
2023-06-18T00:37:40.252Z,12.90
2023-06-18T00:40:07.462Z,13.17
2023-06-18T00:42:33.884Z,13.90
2023-06-18T00:45:00.339Z,14.90
2023-06-18T00:47:28.192Z,15.57
2023-06-18T00:49:56.475Z,14.57
2023-06-18T00:52:24.770Z,14.60
2023-06-18T00:54:51.526Z,14.63
2023-06-18T00:57:21.952Z,14.07
2023-06-18T00:59:51.552Z,15.10
2023-06-18T01:02:29.322Z,15.00
2023-06-18T01:04:58.818Z,16.17
2023-06-18T01:07:29.078Z,13.90
2023-06-18T01:10:08.118Z,13.67
2023-06-18T01:12:34.679Z,15.00
2023-06-18T01:15:01.949Z,14.27
2023-06-18T01:17:30.557Z,14.50
2023-06-18T01:20:11.662Z,14.60
2023-06-18T01:22:47.444Z,14.33
2023-06-18T01:25:17.586Z,13.53
2023-06-18T01:27:47.682Z,14.73
2023-06-18T01:30:15.175Z,14.30
2023-06-18T01:32:41.797Z,13.27
2023-06-18T01:35:15.976Z,14.07
2023-06-18T01:38:21.331Z,13.83
2023-06-18T01:40:56.850Z,14.73
2023-06-18T01:43:48.305Z,14.37
2023-06-18T01:46:24.494Z,14.30
2023-06-18T01:49:04.609Z,14.37
2023-06-18T01:51:32.843Z,13.63
2023-06-18T01:54:02.871Z,14.67
2023-06-18T01:56:29.598Z,13.30
2023-06-18T01:58:56.957Z,14.23
2023-06-18T02:01:23.560Z,13.13
2023-06-18T02:03:50.331Z,13.60
2023-06-18T02:06:16.901Z,14.33
2023-06-18T02:08:43.329Z,13.13
2023-06-18T02:11:10.607Z,13.10
2023-06-18T02:13:38.166Z,13.83
2023-06-18T02:16:04.839Z,13.23
2023-06-18T02:18:32.154Z,12.67
2023-06-18T02:20:59.529Z,13.27
2023-06-18T02:23:27.374Z,14.73
2023-06-18T02:25:53.752Z,12.77
2023-06-18T02:28:20.275Z,13.27
2023-06-18T02:30:47.600Z,13.27
2023-06-18T02:33:17.589Z,13.77
2023-06-18T02:35:44.204Z,14.37
2023-06-18T02:38:10.798Z,14.07
2023-06-18T02:40:37.189Z,14.60
2023-06-18T02:43:06.807Z,15.90
2023-06-18T02:45:33.432Z,14.73
2023-06-18T02:47:59.935Z,14.57
2023-06-18T02:50:26.850Z,15.20
2023-06-18T02:52:53.420Z,14.33
2023-06-18T02:55:19.845Z,14.27
2023-06-18T02:57:46.789Z,14.73
2023-06-18T03:00:14.341Z,14.37
2023-06-18T03:02:44.220Z,15.47
2023-06-18T03:05:15.962Z,14.37
2023-06-18T03:07:42.427Z,15.17
2023-06-18T03:10:10.729Z,14.27
2023-06-18T03:12:38.028Z,13.03
2023-06-18T03:15:15.785Z,14.00
2023-06-18T03:17:44.354Z,14.73
2023-06-18T03:20:11.502Z,13.83
2023-06-18T03:22:38.372Z,14.23
2023-06-18T03:25:06.452Z,13.83
2023-06-18T03:27:32.999Z,15.03
2023-06-18T03:29:59.540Z,14.20
2023-06-18T03:32:28.643Z,14.03
2023-06-18T03:34:55.166Z,14.90
2023-06-18T03:37:22.408Z,15.00
2023-06-18T03:39:48.840Z,14.50
2023-06-18T03:42:15.238Z,14.63
2023-06-18T03:44:41.664Z,15.17
2023-06-18T03:47:08.821Z,15.70
2023-06-18T03:49:35.832Z,14.67
2023-06-18T03:52:02.399Z,14.43
2023-06-18T03:54:28.805Z,15.83
2023-06-18T03:56:59.129Z,16.00
2023-06-18T03:59:25.576Z,15.43
2023-06-18T04:01:52.514Z,14.17
2023-06-18T04:04:19.556Z,14.83
2023-06-18T04:06:46.050Z,13.93
2023-06-18T04:09:13.241Z,14.00
2023-06-18T04:11:40.036Z,14.93
2023-06-18T04:14:06.678Z,14.30
2023-06-18T04:16:33.950Z,15.20
2023-06-18T04:19:00.959Z,14.83
2023-06-18T04:21:27.439Z,14.87
2023-06-18T04:23:55.471Z,14.67
2023-06-18T04:26:23.885Z,14.27
2023-06-18T04:28:51.655Z,14.60
2023-06-18T04:31:18.577Z,14.33
2023-06-18T04:33:45.032Z,15.33
2023-06-18T04:36:11.744Z,15.00
2023-06-18T04:38:40.062Z,15.70
2023-06-18T04:41:06.988Z,16.10
2023-06-18T04:43:34.951Z,16.13
2023-06-18T04:46:01.471Z,16.63
2023-06-18T04:48:28.567Z,15.87
2023-06-18T04:50:55.016Z,15.60
2023-06-18T04:53:22.664Z,16.83
2023-06-18T04:55:49.562Z,16.07
2023-06-18T04:58:16.025Z,16.10
2023-06-18T05:00:45.131Z,15.60
2023-06-18T05:03:12.423Z,14.30
2023-06-18T05:05:38.949Z,14.90
2023-06-18T05:08:06.403Z,14.60
2023-06-18T05:10:34.729Z,14.03
2023-06-18T05:13:01.157Z,15.73
2023-06-18T05:15:28.042Z,16.23
2023-06-18T05:17:54.544Z,14.23
2023-06-18T05:20:21.892Z,15.13
2023-06-18T05:22:48.577Z,15.47
2023-06-18T05:25:16.164Z,14.87
2023-06-18T05:27:43.206Z,14.20
2023-06-18T05:30:09.828Z,13.90
2023-06-18T05:32:36.237Z,14.90
2023-06-18T05:35:07.033Z,16.43
2023-06-18T05:37:38.774Z,14.83
2023-06-18T05:40:09.206Z,14.93
2023-06-18T05:42:36.933Z,15.90
2023-06-18T05:45:04.070Z,14.40
2023-06-18T05:47:30.590Z,13.43
2023-06-18T05:49:58.356Z,14.50
2023-06-18T05:52:26.367Z,13.97
2023-06-18T05:54:52.765Z,13.77
2023-06-18T05:57:20.294Z,14.07
2023-06-18T05:59:48.416Z,14.00
2023-06-18T06:02:16.585Z,13.63
2023-06-18T06:04:45.977Z,13.53
2023-06-18T06:07:13.491Z,14.97
2023-06-18T06:09:40.191Z,14.53
2023-06-18T06:12:07.139Z,13.63
2023-06-18T06:14:34.156Z,14.00
2023-06-18T06:17:01.092Z,14.80
2023-06-18T06:19:27.684Z,14.80
2023-06-18T06:21:54.117Z,14.63
2023-06-18T06:24:22.143Z,13.13
2023-06-18T06:26:48.643Z,14.73
2023-06-18T06:29:15.237Z,14.40
2023-06-18T06:31:41.644Z,14.40
2023-06-18T06:34:08.265Z,14.40
2023-06-18T06:36:37.042Z,14.07
2023-06-18T06:39:04.208Z,13.67
2023-06-18T06:41:30.885Z,13.83
2023-06-18T06:44:01.475Z,14.17
2023-06-18T06:46:35.923Z,15.90
2023-06-18T06:49:18.890Z,13.33
2023-06-18T06:51:57.356Z,14.90
2023-06-18T06:54:24.108Z,13.10
2023-06-18T06:56:50.565Z,13.50
2023-06-18T06:59:17.022Z,12.63
2023-06-18T07:01:46.336Z,13.70
2023-06-18T07:04:14.890Z,13.07
2023-06-18T07:06:41.512Z,12.33
2023-06-18T07:09:08.306Z,12.57
2023-06-18T07:11:37.609Z,12.53
2023-06-18T07:14:04.637Z,12.40
2023-06-18T07:16:31.110Z,11.33
2023-06-18T07:18:57.552Z,11.73
2023-06-18T07:21:23.954Z,11.50
2023-06-18T07:23:50.388Z,11.93
2023-06-18T07:26:16.888Z,10.77
2023-06-18T07:28:43.265Z,11.40
2023-06-18T07:31:09.702Z,11.37
2023-06-18T07:33:36.110Z,10.57
2023-06-18T07:36:02.587Z,11.37
2023-06-18T07:38:28.962Z,11.13
2023-06-18T07:40:55.492Z,10.57
2023-06-18T07:43:21.956Z,10.93
2023-06-18T07:45:48.364Z,10.40
2023-06-18T07:48:15.480Z,10.23
2023-06-18T07:50:42.276Z,9.27
2023-06-18T07:53:08.696Z,10.43
2023-06-18T07:55:35.137Z,10.90
2023-06-18T07:58:01.512Z,10.83
2023-06-18T08:00:27.904Z,10.13
2023-06-18T08:02:54.457Z,10.13
2023-06-18T08:05:21.069Z,8.83
2023-06-18T08:07:47.526Z,9.67
2023-06-18T08:10:13.940Z,8.40
2023-06-18T08:12:40.393Z,8.87
2023-06-18T08:15:07.235Z,8.00
2023-06-18T08:17:33.682Z,7.38
2023-06-18T08:20:00.092Z,8.48
2023-06-18T08:22:27.128Z,7.38
2023-06-18T08:24:53.509Z,7.78
2023-06-18T08:27:20.141Z,7.35
2023-06-18T08:29:46.614Z,7.43
2023-06-18T08:32:14.532Z,8.63
2023-06-18T08:34:44.045Z,8.35
2023-06-18T08:37:13.855Z,7.75
2023-06-18T08:39:40.302Z,7.10
2023-06-18T08:42:07.635Z,7.93
2023-06-18T08:44:35.266Z,8.10
2023-06-18T08:47:04.616Z,7.47
2023-06-18T08:49:32.785Z,8.27
2023-06-18T08:52:03.413Z,8.13
2023-06-18T08:54:34.259Z,8.38
2023-06-18T08:57:12.674Z,7.35
2023-06-18T08:59:39.602Z,7.32
2023-06-18T09:02:06.809Z,6.80
2023-06-18T09:04:36.778Z,7.25
2023-06-18T09:07:03.921Z,7.72
2023-06-18T09:09:30.782Z,6.85
2023-06-18T09:11:58.212Z,6.85
2023-06-18T09:14:25.840Z,6.47
2023-06-18T09:16:54.158Z,6.88
2023-06-18T09:19:21.379Z,7.07
2023-06-18T09:21:48.051Z,5.50
2023-06-18T09:24:20.115Z,5.88
2023-06-18T09:26:48.472Z,6.43
2023-06-18T09:29:14.972Z,6.03
2023-06-18T09:31:47.405Z,6.30
2023-06-18T09:34:21.028Z,6.45
2023-06-18T09:36:49.303Z,6.70
2023-06-18T09:39:20.243Z,6.32
2023-06-18T09:41:47.920Z,6.35
2023-06-18T09:44:18.435Z,6.60
2023-06-18T09:46:49.990Z,7.00
2023-06-18T09:49:19.468Z,7.10
2023-06-18T09:51:47.528Z,6.40
2023-06-18T09:54:13.945Z,6.80
2023-06-18T09:56:56.352Z,6.70
2023-06-18T09:59:24.244Z,5.63
2023-06-18T10:01:51.065Z,6.68
2023-06-18T10:04:20.911Z,6.45
2023-06-18T10:07:06.414Z,5.53
2023-06-18T10:09:34.305Z,6.38
2023-06-18T10:12:02.663Z,6.22
2023-06-18T10:14:30.176Z,6.35
2023-06-18T10:17:05.761Z,6.30
2023-06-18T10:19:45.782Z,6.85
2023-06-18T10:22:13.589Z,6.75
2023-06-18T10:25:08.029Z,6.57
2023-06-18T10:27:36.114Z,7.10
2023-06-18T10:30:03.899Z,7.55
2023-06-18T10:32:32.525Z,6.00
2023-06-18T10:35:09.564Z,6.60
2023-06-18T10:37:37.814Z,6.78
2023-06-18T10:40:04.912Z,7.25
2023-06-18T10:42:33.517Z,6.13
2023-06-18T10:45:10.228Z,6.75
2023-06-18T10:47:37.335Z,6.80
2023-06-18T10:50:03.816Z,6.05
2023-06-18T10:52:32.093Z,5.50
2023-06-18T10:55:37.172Z,5.88
2023-06-18T10:58:06.155Z,7.00
2023-06-18T11:00:36.479Z,5.60
2023-06-18T11:03:13.176Z,6.03
2023-06-18T11:05:42.416Z,5.75
2023-06-18T11:08:10.966Z,6.18
2023-06-18T11:10:48.267Z,6.18
2023-06-18T11:13:15.759Z,5.95
2023-06-18T11:16:01.861Z,6.13
2023-06-18T11:18:30.146Z,6.03
2023-06-18T11:20:57.291Z,5.50
2023-06-18T11:23:24.689Z,5.20
2023-06-18T11:25:51.839Z,5.28
2023-06-18T11:28:18.554Z,6.05
2023-06-18T11:31:04.123Z,5.57
2023-06-18T11:33:31.525Z,6.00
2023-06-18T11:36:08.847Z,6.40
2023-06-18T11:38:35.420Z,6.10
2023-06-18T11:41:01.981Z,6.18
2023-06-18T11:43:43.706Z,5.70
2023-06-18T11:46:25.470Z,6.50
2023-06-18T11:48:53.335Z,6.03
2023-06-18T11:51:20.262Z,6.30
2023-06-18T11:53:47.145Z,6.85
2023-06-18T11:56:13.775Z,5.97
2023-06-18T11:58:40.338Z,6.53
2023-06-18T12:01:06.880Z,7.05
2023-06-18T12:03:37.072Z,6.68
2023-06-18T12:06:16.158Z,6.80
2023-06-18T12:08:46.797Z,6.38
2023-06-18T12:11:21.620Z,6.60
2023-06-18T12:13:51.699Z,6.38
2023-06-18T12:16:25.487Z,6.68
2023-06-18T12:18:59.185Z,6.78
2023-06-18T12:21:26.155Z,7.15
2023-06-18T12:23:52.737Z,5.65
2023-06-18T12:26:19.222Z,6.10
2023-06-18T12:28:45.633Z,6.85
2023-06-18T12:31:12.546Z,6.32
2023-06-18T12:33:42.072Z,7.13
2023-06-18T12:36:08.496Z,6.38
2023-06-18T12:38:47.019Z,5.82
2023-06-18T12:41:24.477Z,6.22
2023-06-18T12:43:53.416Z,7.10
2023-06-18T12:46:27.313Z,6.32
2023-06-18T12:48:58.392Z,6.57
2023-06-18T12:51:44.676Z,6.07
2023-06-18T12:54:24.276Z,6.43
2023-06-18T12:56:55.463Z,5.78
2023-06-18T12:59:24.255Z,6.53
2023-06-18T13:01:51.432Z,6.57
2023-06-18T13:04:20.662Z,6.68
2023-06-18T13:06:48.512Z,6.35
2023-06-18T13:09:14.896Z,6.53
2023-06-18T13:11:41.350Z,7.13
2023-06-18T13:14:18.207Z,6.30
2023-06-18T13:16:48.809Z,6.80
2023-06-18T13:19:16.959Z,6.65
2023-06-18T13:21:43.466Z,6.78
2023-06-18T13:24:09.943Z,6.05
2023-06-18T13:26:36.463Z,6.93
2023-06-18T13:29:04.105Z,5.97
2023-06-18T13:31:30.500Z,6.22
2023-06-18T13:33:57.264Z,7.18
2023-06-18T13:36:23.652Z,7.22
2023-06-18T13:38:50.358Z,6.72
2023-06-18T13:41:16.767Z,6.07
2023-06-18T13:43:43.216Z,6.90
2023-06-18T13:46:09.644Z,5.88
2023-06-18T13:48:36.536Z,6.43
2023-06-18T13:51:02.995Z,6.97
2023-06-18T13:53:29.460Z,6.80
2023-06-18T13:55:55.858Z,6.47
2023-06-18T13:58:22.435Z,6.07
2023-06-18T14:00:49.010Z,6.10
2023-06-18T14:03:15.464Z,7.88
2023-06-18T14:05:42.634Z,7.35
2023-06-18T14:08:09.154Z,7.65
2023-06-18T14:10:35.623Z,7.93
2023-06-18T14:13:02.054Z,7.30
2023-06-18T14:15:28.561Z,7.05
2023-06-18T14:17:55.004Z,7.55
2023-06-18T14:20:21.508Z,6.70
2023-06-18T14:22:49.032Z,6.40
2023-06-18T14:25:16.338Z,6.95
2023-06-18T14:27:42.912Z,6.75
2023-06-18T14:30:11.721Z,7.00
2023-06-18T14:32:39.382Z,7.22
2023-06-18T14:35:06.415Z,7.10
2023-06-18T14:37:32.803Z,7.57
2023-06-18T14:39:59.193Z,6.72
2023-06-18T14:42:26.394Z,6.63
2023-06-18T14:44:52.791Z,7.22
2023-06-18T14:47:19.234Z,7.18
2023-06-18T14:49:45.873Z,6.68
2023-06-18T14:52:12.262Z,7.55
2023-06-18T14:54:40.443Z,6.63
2023-06-18T14:57:07.128Z,6.57
2023-06-18T14:59:33.571Z,6.13
2023-06-18T15:01:59.964Z,6.53
2023-06-18T15:04:26.484Z,7.32
2023-06-18T15:06:52.906Z,7.30
2023-06-18T15:13:43.811Z,8.05
2023-06-18T15:16:10.246Z,8.25
2023-06-18T15:18:36.590Z,8.13
2023-06-18T15:21:02.970Z,7.97
2023-06-18T15:23:29.347Z,8.57
2023-06-18T15:25:56.150Z,8.43
2023-06-18T15:28:22.570Z,8.00
2023-06-18T15:30:48.970Z,8.27
2023-06-18T15:33:15.430Z,9.07
2023-06-18T15:35:41.825Z,8.93
2023-06-18T15:38:08.206Z,7.70
2023-06-18T15:40:34.573Z,8.48
2023-06-18T15:43:00.967Z,8.95
2023-06-18T15:45:27.649Z,8.52
2023-06-18T15:47:54.249Z,8.13
2023-06-18T15:50:20.750Z,8.18
2023-06-18T15:52:47.210Z,8.38
2023-06-18T15:55:13.645Z,8.30
2023-06-18T15:57:40.287Z,8.52
2023-06-18T16:00:08.072Z,7.95
2023-06-18T16:02:37.293Z,8.18
2023-06-18T16:05:22.200Z,9.45
2023-06-18T16:07:48.789Z,8.85
2023-06-18T16:10:15.646Z,8.68
2023-06-18T16:12:42.007Z,9.15
2023-06-18T16:15:08.991Z,9.30
2023-06-18T16:17:35.367Z,8.35
2023-06-18T16:20:01.827Z,8.63
2023-06-18T16:22:28.227Z,7.57
2023-06-18T16:24:54.596Z,7.80
2023-06-18T16:27:20.960Z,7.25
2023-06-18T16:29:47.346Z,7.43
2023-06-18T16:32:13.767Z,7.30
2023-06-18T16:34:40.710Z,7.85
2023-06-18T16:37:07.372Z,6.75
2023-06-18T16:39:34.556Z,7.88
2023-06-18T16:42:01.001Z,7.38
2023-06-18T16:44:27.388Z,7.35
2023-06-18T16:46:53.814Z,6.82
2023-06-18T16:49:20.189Z,6.53
2023-06-18T16:51:46.664Z,6.85
2023-06-18T16:54:13.053Z,6.82
2023-06-18T16:56:39.483Z,7.50
2023-06-18T16:59:06.820Z,6.95
2023-06-18T17:01:33.301Z,7.20
2023-06-18T17:04:02.435Z,7.03
2023-06-18T17:06:28.880Z,6.97
2023-06-18T17:08:55.401Z,6.60
2023-06-18T17:11:22.553Z,6.35
2023-06-18T17:13:48.990Z,6.40
2023-06-18T17:16:15.614Z,6.25
2023-06-18T17:18:42.099Z,6.28
2023-06-18T17:21:08.754Z,6.53
2023-06-18T17:23:35.238Z,6.70
2023-06-18T17:26:01.905Z,6.32
2023-06-18T17:28:28.271Z,6.55
2023-06-18T17:30:54.711Z,6.70
2023-06-18T17:33:21.200Z,5.90
2023-06-18T17:35:47.570Z,5.60
2023-06-18T17:38:13.987Z,6.88
2023-06-18T17:40:42.250Z,6.03
2023-06-18T17:43:09.692Z,5.90
2023-06-18T17:45:36.389Z,6.15
2023-06-18T17:48:02.945Z,6.18
2023-06-18T17:50:29.522Z,6.20
2023-06-18T17:52:55.981Z,6.90
2023-06-18T17:55:22.650Z,6.15
2023-06-18T17:57:49.310Z,7.32
2023-06-18T18:00:16.020Z,6.97
2023-06-18T18:02:42.474Z,6.75
2023-06-18T18:05:09.065Z,7.35
2023-06-18T18:07:35.456Z,6.97
2023-06-18T18:10:01.897Z,6.82
2023-06-18T18:12:28.380Z,7.10
2023-06-18T18:14:57.475Z,6.60
2023-06-18T18:17:24.115Z,6.65
2023-06-18T18:19:50.777Z,7.32
2023-06-18T18:22:19.151Z,8.13
2023-06-18T18:24:46.236Z,7.22
2023-06-18T18:27:13.862Z,8.05
2023-06-18T18:29:40.261Z,7.47
2023-06-18T18:32:07.150Z,7.32
2023-06-18T18:34:33.595Z,8.10
2023-06-18T18:37:00.103Z,8.13
2023-06-18T18:39:26.527Z,7.90
2023-06-18T18:41:52.901Z,7.88
2023-06-18T18:44:19.306Z,8.25
2023-06-18T18:46:45.762Z,8.13
2023-06-18T18:49:12.170Z,7.65
2023-06-18T18:51:38.522Z,7.10
2023-06-18T18:54:04.995Z,7.50
2023-06-18T18:56:31.469Z,8.77
2023-06-18T18:58:59.972Z,7.82
2023-06-18T19:01:26.358Z,8.90
2023-06-18T19:03:52.747Z,7.80
2023-06-18T19:06:19.113Z,7.60
2023-06-18T19:08:45.610Z,7.80
2023-06-18T19:11:11.976Z,8.30
2023-06-18T19:13:38.416Z,8.32
2023-06-18T19:16:04.861Z,8.10
2023-06-18T19:18:33.389Z,7.95
2023-06-18T19:21:00.296Z,8.55
2023-06-18T19:23:26.673Z,8.30
2023-06-18T19:25:53.027Z,8.10
2023-06-18T19:28:19.410Z,7.70
2023-06-18T19:30:45.836Z,8.90
2023-06-18T19:33:12.303Z,8.13
2023-06-18T19:35:38.698Z,8.85
2023-06-18T19:38:05.090Z,8.57
2023-06-18T19:40:31.528Z,8.07
2023-06-18T19:42:57.989Z,8.32
2023-06-18T19:45:24.388Z,8.57
2023-06-18T19:47:50.852Z,7.70
2023-06-18T19:50:17.873Z,8.40
2023-06-18T19:52:44.252Z,8.15
2023-06-18T19:55:10.719Z,8.30
2023-06-18T19:57:37.119Z,8.65
2023-06-18T20:00:03.976Z,8.10
2023-06-18T20:02:39.297Z,8.68
2023-06-18T20:05:06.635Z,8.75
2023-06-18T20:07:33.014Z,8.95
2023-06-18T20:09:59.543Z,9.23
2023-06-18T20:12:25.960Z,8.82
2023-06-18T20:14:52.330Z,9.25
2023-06-18T20:17:23.156Z,9.25
2023-06-18T20:19:50.172Z,9.00
2023-06-18T20:22:17.357Z,9.32
2023-06-18T20:24:44.269Z,8.43
2023-06-18T20:27:10.922Z,9.23
2023-06-18T20:29:37.550Z,9.10
2023-06-18T20:32:04.778Z,9.13
2023-06-18T20:34:31.185Z,9.48
2023-06-18T20:36:58.626Z,9.65
2023-06-18T20:39:25.343Z,10.02
2023-06-18T20:41:51.744Z,9.50
2023-06-18T20:44:19.014Z,9.48
2023-06-18T20:46:45.392Z,9.40
2023-06-18T20:49:13.104Z,10.23
2023-06-18T20:51:40.586Z,10.13
2023-06-18T20:54:07.042Z,9.90
2023-06-18T20:56:34.012Z,10.50
2023-06-18T20:59:00.521Z,9.73
2023-06-18T21:01:30.203Z,9.65
2023-06-18T21:03:56.845Z,9.60
2023-06-18T21:06:23.237Z,9.82
2023-06-18T21:08:49.846Z,10.87
2023-06-18T21:11:18.260Z,10.07
2023-06-18T21:13:46.876Z,10.27
2023-06-18T21:16:14.425Z,9.55
2023-06-18T21:18:41.186Z,9.30
2023-06-18T21:21:07.936Z,10.50
2023-06-18T21:23:34.455Z,10.50
2023-06-18T21:26:00.980Z,11.67
2023-06-18T21:28:27.762Z,10.73
2023-06-18T21:30:54.596Z,10.87
2023-06-18T21:33:21.072Z,10.57
2023-06-18T21:35:48.794Z,10.07
2023-06-18T21:38:15.556Z,10.97
2023-06-18T21:40:41.927Z,10.57
2023-06-18T21:43:08.455Z,10.63
2023-06-18T21:45:35.051Z,11.53
2023-06-18T21:48:01.619Z,11.07
2023-06-18T21:50:28.086Z,10.47
2023-06-18T21:52:54.502Z,10.67
2023-06-18T21:55:20.986Z,10.43
2023-06-18T21:57:47.454Z,9.77
2023-06-18T22:00:14.629Z,11.20
2023-06-18T22:02:41.212Z,10.57
2023-06-18T22:05:07.914Z,10.97
2023-06-18T22:07:34.348Z,10.50
2023-06-18T22:10:00.751Z,11.03
2023-06-18T22:12:27.297Z,10.80
2023-06-18T22:14:53.693Z,10.77
2023-06-18T22:17:20.797Z,10.27
2023-06-18T22:19:47.248Z,10.67
2023-06-18T22:22:13.632Z,9.50
2023-06-18T22:24:40.086Z,9.00
2023-06-18T22:27:07.216Z,9.90
2023-06-18T22:29:33.610Z,8.97
2023-06-18T22:31:59.982Z,8.90
2023-06-18T22:34:40.558Z,8.60
2023-06-18T22:37:08.537Z,8.63
2023-06-18T22:39:34.918Z,7.13
2023-06-18T22:42:02.737Z,6.63
2023-06-18T22:44:29.192Z,7.10
2023-06-18T22:46:55.616Z,6.40
2023-06-18T22:49:21.982Z,6.87
2023-06-18T22:51:54.623Z,6.37
2023-06-18T22:54:21.002Z,7.57
2023-06-18T22:56:47.382Z,7.43
2023-06-18T22:59:13.830Z,7.23
2023-06-18T23:01:41.212Z,6.90
2023-06-18T23:04:07.676Z,6.75
2023-06-18T23:06:34.134Z,6.53
2023-06-18T23:09:00.597Z,6.73
2023-06-18T23:11:26.995Z,7.20
2023-06-18T23:13:53.451Z,7.03
2023-06-18T23:16:20.057Z,6.63
2023-06-18T23:18:46.464Z,6.57
2023-06-18T23:21:13.154Z,6.57
2023-06-18T23:23:39.758Z,5.97
2023-06-18T23:26:06.207Z,6.63
2023-06-18T23:28:35.726Z,6.80
2023-06-18T23:31:04.569Z,6.47
2023-06-18T23:33:31.672Z,5.63
2023-06-18T23:35:58.223Z,5.53
2023-06-18T23:38:25.006Z,5.70
2023-06-18T23:40:52.477Z,5.43
2023-06-18T23:43:20.137Z,6.03
2023-06-18T23:45:46.903Z,5.75
2023-06-18T23:48:13.327Z,5.80
2023-06-18T23:50:41.265Z,6.30
2023-06-18T23:53:07.946Z,5.90
2023-06-18T23:55:34.313Z,6.13
2023-06-18T23:58:02.610Z,5.80
